createdAt,value
2018-12-03T00:00:53.514Z,28.34
2018-12-03T00:01:49.557Z,28.34
2018-12-03T00:02:30.584Z,28.32
2018-12-03T00:03:08.405Z,28.33
2018-12-03T00:03:46.264Z,28.33
2018-12-03T00:04:27.265Z,28.33
2018-12-03T00:05:05.095Z,28.33
2018-12-03T00:05:42.834Z,28.33
2018-12-03T00:06:20.502Z,28.34
2018-12-03T00:06:58.302Z,28.34
2018-12-03T00:07:36.249Z,28.34
2018-12-03T00:08:13.978Z,28.35
2018-12-03T00:08:51.694Z,28.38
2018-12-03T00:09:29.481Z,28.38
2018-12-03T00:10:07.430Z,28.38
2018-12-03T00:10:45.379Z,28.39
2018-12-03T00:11:23.154Z,28.40
2018-12-03T00:12:01.006Z,28.36
2018-12-03T00:12:38.737Z,28.42
2018-12-03T00:13:16.523Z,28.44
2018-12-03T00:13:54.423Z,28.44
2018-12-03T00:14:32.301Z,28.46
2018-12-03T00:15:10.939Z,28.46
2018-12-03T00:15:48.793Z,28.46
2018-12-03T00:16:26.707Z,28.47
2018-12-03T00:17:04.518Z,28.49
2018-12-03T00:17:42.333Z,28.50
2018-12-03T00:18:20.204Z,28.41
2018-12-03T00:18:58.056Z,28.49
2018-12-03T00:19:35.834Z,28.49
2018-12-03T00:20:14.373Z,28.52
2018-12-03T00:20:52.158Z,28.50
2018-12-03T00:21:30.066Z,28.50
2018-12-03T00:22:08.255Z,28.52
2018-12-03T00:22:46.113Z,28.52
2018-12-03T00:23:23.860Z,28.54
2018-12-03T00:24:01.823Z,28.56
2018-12-03T00:24:39.582Z,28.56
2018-12-03T00:25:17.418Z,28.58
2018-12-03T00:25:55.347Z,28.59
2018-12-03T00:26:33.937Z,28.61
2018-12-03T00:27:11.784Z,28.64
2018-12-03T00:27:58.436Z,28.64
2018-12-03T00:28:36.262Z,28.67
2018-12-03T00:29:14.141Z,28.67
2018-12-03T00:29:52.754Z,28.69
2018-12-03T00:30:30.520Z,28.70
2018-12-03T00:31:08.244Z,28.71
2018-12-03T00:31:46.201Z,28.73
2018-12-03T00:32:25.234Z,28.73
2018-12-03T00:33:03.040Z,28.73
2018-12-03T00:33:40.892Z,28.75
2018-12-03T00:34:18.885Z,28.73
2018-12-03T00:34:56.602Z,28.73
2018-12-03T00:35:34.560Z,28.69
2018-12-03T00:36:12.452Z,28.74
2018-12-03T00:36:50.205Z,28.74
2018-12-03T00:37:28.022Z,28.73
2018-12-03T00:38:05.843Z,28.74
2018-12-03T00:38:43.858Z,28.74
2018-12-03T00:39:21.751Z,28.75
2018-12-03T00:39:59.574Z,28.75
2018-12-03T00:40:37.578Z,28.75
2018-12-03T00:41:15.732Z,28.71
2018-12-03T00:41:53.456Z,28.71
2018-12-03T00:42:31.144Z,28.76
2018-12-03T00:43:08.969Z,28.72
2018-12-03T00:43:46.887Z,28.72
2018-12-03T00:44:24.682Z,28.76
2018-12-03T00:45:02.409Z,28.72
2018-12-03T00:45:40.262Z,28.74
2018-12-03T00:46:18.145Z,28.75
2018-12-03T00:46:56.048Z,28.75
2018-12-03T00:47:33.971Z,28.80
2018-12-03T00:48:11.787Z,28.84
2018-12-03T00:48:49.640Z,28.84
2018-12-03T00:49:30.669Z,28.87
2018-12-03T00:50:08.518Z,28.88
2018-12-03T00:50:46.212Z,28.88
2018-12-03T00:51:24.156Z,28.90
2018-12-03T00:52:01.915Z,28.93
2018-12-03T00:52:39.676Z,28.96
2018-12-03T00:53:17.479Z,28.96
2018-12-03T00:53:55.289Z,29.01
2018-12-03T00:54:33.146Z,29.03
2018-12-03T00:55:11.842Z,29.05
2018-12-03T00:55:49.714Z,29.05
2018-12-03T00:56:27.468Z,29.07
2018-12-03T00:57:05.306Z,29.15
2018-12-03T00:57:42.943Z,29.10
2018-12-03T00:58:20.718Z,29.15
2018-12-03T00:58:58.575Z,29.14
2018-12-03T00:59:36.427Z,29.20
2018-12-03T01:00:14.864Z,29.20
2018-12-03T01:00:52.979Z,29.19
2018-12-03T01:01:37.467Z,29.13
2018-12-03T01:02:27.942Z,29.18
2018-12-03T01:03:05.864Z,29.19
2018-12-03T01:03:43.611Z,29.18
2018-12-03T01:04:21.307Z,29.19
2018-12-03T01:05:01.725Z,29.28
2018-12-03T01:05:39.474Z,29.35
2018-12-03T01:06:17.295Z,29.42
2018-12-03T01:06:55.050Z,29.57
2018-12-03T01:07:32.690Z,29.65
2018-12-03T01:08:10.679Z,29.65
2018-12-03T01:08:48.568Z,29.65
2018-12-03T01:09:26.380Z,29.64
2018-12-03T01:10:04.044Z,29.67
2018-12-03T01:10:41.923Z,29.76
2018-12-03T01:11:19.808Z,29.85
2018-12-03T01:11:57.580Z,29.92
2018-12-03T01:12:35.249Z,29.92
2018-12-03T01:13:12.991Z,29.79
2018-12-03T01:13:50.716Z,29.70
2018-12-03T01:14:28.468Z,29.70
2018-12-03T01:15:06.389Z,29.68
2018-12-03T01:15:44.245Z,29.65
2018-12-03T01:16:24.164Z,29.64
2018-12-03T01:17:01.821Z,29.58
2018-12-03T01:17:40.209Z,29.58
2018-12-03T01:18:18.160Z,29.59
2018-12-03T01:18:56.059Z,29.65
2018-12-03T01:19:33.903Z,29.65
2018-12-03T01:20:14.038Z,29.59
2018-12-03T01:20:51.885Z,29.66
2018-12-03T01:21:29.758Z,29.58
2018-12-03T01:22:08.107Z,29.58
2018-12-03T01:22:45.832Z,29.60
2018-12-03T01:23:23.664Z,29.56
2018-12-03T01:24:01.463Z,29.55
2018-12-03T01:24:39.373Z,29.55
2018-12-03T01:25:17.067Z,29.52
2018-12-03T01:25:55.205Z,29.52
2018-12-03T01:26:32.943Z,29.46
2018-12-03T01:27:10.853Z,29.52
2018-12-03T01:27:48.679Z,29.52
2018-12-03T01:28:26.934Z,29.55
2018-12-03T01:29:04.828Z,29.63
2018-12-03T01:29:42.536Z,29.78
2018-12-03T01:30:20.495Z,29.86
2018-12-03T01:30:58.210Z,29.96
2018-12-03T01:31:35.940Z,30.06
2018-12-03T01:32:13.605Z,30.06
2018-12-03T01:32:51.285Z,30.21
2018-12-03T01:33:29.206Z,30.27
2018-12-03T01:34:07.086Z,30.31
2018-12-03T01:34:44.687Z,30.32
2018-12-03T01:35:22.422Z,30.41
2018-12-03T01:36:00.204Z,30.41
2018-12-03T01:36:38.084Z,30.63
2018-12-03T01:37:15.890Z,30.63
2018-12-03T01:37:53.716Z,30.69
2018-12-03T01:38:32.226Z,30.70
2018-12-03T01:39:12.010Z,30.73
2018-12-03T01:39:49.835Z,30.78
2018-12-03T01:40:29.139Z,30.83
2018-12-03T01:41:06.749Z,30.97
2018-12-03T01:41:44.471Z,31.08
2018-12-03T01:42:22.264Z,31.05
2018-12-03T01:43:00.128Z,31.03
2018-12-03T01:43:37.819Z,31.00
2018-12-03T01:44:15.707Z,31.00
2018-12-03T01:44:53.515Z,30.98
2018-12-03T01:45:31.404Z,30.96
2018-12-03T01:46:09.379Z,30.95
2018-12-03T01:46:47.256Z,30.93
2018-12-03T01:47:25.010Z,30.91
2018-12-03T01:48:02.813Z,30.90
2018-12-03T01:48:40.763Z,30.91
2018-12-03T01:49:18.537Z,30.92
2018-12-03T01:49:56.482Z,30.94
2018-12-03T01:50:34.230Z,30.96
2018-12-03T01:51:11.948Z,30.97
2018-12-03T01:51:49.666Z,30.97
2018-12-03T01:52:27.424Z,30.96
2018-12-03T01:53:05.288Z,30.95
2018-12-03T01:53:43.172Z,30.95
2018-12-03T01:54:21.041Z,30.94
2018-12-03T01:54:58.726Z,30.94
2018-12-03T01:55:36.495Z,30.91
2018-12-03T01:56:14.177Z,30.89
2018-12-03T01:56:51.933Z,30.88
2018-12-03T01:57:29.576Z,30.86
2018-12-03T01:58:07.245Z,30.86
2018-12-03T01:58:44.977Z,30.86
2018-12-03T01:59:22.718Z,30.84
2018-12-03T02:00:00.660Z,30.84
2018-12-03T02:00:38.341Z,30.83
2018-12-03T02:01:16.027Z,30.83
2018-12-03T02:01:53.848Z,30.81
2018-12-03T02:02:31.685Z,30.80
2018-12-03T02:03:09.463Z,30.78
2018-12-03T02:03:47.299Z,30.79
2018-12-03T02:04:25.006Z,30.76
2018-12-03T02:05:02.781Z,30.75
2018-12-03T02:05:40.537Z,30.75
2018-12-03T02:06:18.432Z,30.75
2018-12-03T02:06:56.330Z,30.73
2018-12-03T02:07:34.095Z,30.72
2018-12-03T02:08:11.718Z,30.71
2018-12-03T02:08:49.450Z,30.69
2018-12-03T02:09:27.315Z,30.68
2018-12-03T02:10:05.165Z,30.66
2018-12-03T02:10:42.826Z,30.65
2018-12-03T02:11:20.605Z,30.63
2018-12-03T02:11:58.330Z,30.63
2018-12-03T02:12:36.304Z,30.61
2018-12-03T02:13:14.302Z,30.60
2018-12-03T02:13:52.096Z,30.60
2018-12-03T02:14:29.748Z,30.61
2018-12-03T02:15:08.562Z,30.62
2018-12-03T02:15:46.435Z,30.66
2018-12-03T02:16:24.422Z,30.68
2018-12-03T02:17:02.305Z,30.72
2018-12-03T02:17:40.231Z,30.78
2018-12-03T02:18:18.105Z,30.85
2018-12-03T02:18:55.915Z,30.94
2018-12-03T02:19:33.649Z,31.04
2018-12-03T02:20:13.720Z,31.10
2018-12-03T02:20:51.510Z,31.21
2018-12-03T02:21:29.476Z,31.29
2018-12-03T02:22:07.212Z,31.34
2018-12-03T02:22:45.183Z,31.36
2018-12-03T02:23:22.909Z,31.38
2018-12-03T02:24:00.851Z,31.41
2018-12-03T02:24:39.080Z,31.43
2018-12-03T02:25:16.772Z,31.47
2018-12-03T02:25:54.815Z,31.50
2018-12-03T02:26:32.632Z,31.53
2018-12-03T02:27:10.782Z,31.56
2018-12-03T02:27:48.637Z,31.65
2018-12-03T02:28:26.579Z,31.81
2018-12-03T02:29:04.209Z,31.85
2018-12-03T02:29:42.075Z,31.84
2018-12-03T02:30:20.378Z,31.80
2018-12-03T02:30:58.055Z,31.79
2018-12-03T02:31:35.897Z,31.76
2018-12-03T02:32:16.509Z,31.76
2018-12-03T02:32:57.102Z,31.73
2018-12-03T02:33:34.737Z,31.71
2018-12-03T02:34:12.390Z,31.71
2018-12-03T02:34:50.215Z,31.69
2018-12-03T02:35:28.147Z,31.70
2018-12-03T02:36:06.031Z,31.66
2018-12-03T02:36:43.812Z,31.65
2018-12-03T02:37:22.357Z,31.64
2018-12-03T02:38:00.105Z,31.61
2018-12-03T02:38:38.007Z,31.62
2018-12-03T02:39:15.752Z,31.65
2018-12-03T02:39:53.604Z,31.67
2018-12-03T02:40:31.382Z,31.70
2018-12-03T02:41:09.068Z,31.69
2018-12-03T02:41:46.939Z,31.68
2018-12-03T02:42:24.669Z,31.65
2018-12-03T02:43:02.558Z,31.64
2018-12-03T02:43:40.280Z,31.63
2018-12-03T02:44:18.027Z,31.60
2018-12-03T02:44:55.923Z,31.60
2018-12-03T02:45:33.689Z,31.58
2018-12-03T02:46:11.481Z,31.58
2018-12-03T02:46:49.285Z,31.58
2018-12-03T02:47:27.150Z,31.56
2018-12-03T02:48:05.196Z,31.54
2018-12-03T02:48:43.035Z,31.53
2018-12-03T02:49:20.729Z,31.53
2018-12-03T02:49:58.518Z,31.52
2018-12-03T02:50:36.243Z,31.50
2018-12-03T02:51:14.003Z,31.49
2018-12-03T02:51:51.937Z,31.47
2018-12-03T02:52:29.846Z,31.44
2018-12-03T02:53:07.619Z,31.42
2018-12-03T02:53:45.471Z,31.41
2018-12-03T02:54:23.162Z,31.39
2018-12-03T02:55:00.893Z,31.36
2018-12-03T02:55:38.578Z,31.36
2018-12-03T02:56:16.283Z,31.33
2018-12-03T02:56:54.061Z,31.29
2018-12-03T02:57:31.724Z,31.26
2018-12-03T02:58:09.699Z,31.24
2018-12-03T02:58:47.588Z,31.24
2018-12-03T02:59:25.365Z,31.22
2018-12-03T03:00:03.240Z,31.20
2018-12-03T03:00:43.397Z,31.15
2018-12-03T03:01:21.240Z,31.14
2018-12-03T03:01:59.039Z,31.13
2018-12-03T03:02:36.806Z,31.11
2018-12-03T03:03:14.532Z,31.12
2018-12-03T03:03:52.250Z,31.10
2018-12-03T03:04:32.850Z,31.08
2018-12-03T03:05:12.555Z,31.07
2018-12-03T03:05:50.473Z,31.06
2018-12-03T03:06:28.353Z,31.08
2018-12-03T03:07:06.244Z,31.08
2018-12-03T03:07:44.209Z,31.09
2018-12-03T03:08:21.873Z,31.08
2018-12-03T03:08:59.539Z,31.07
2018-12-03T03:09:37.139Z,31.06
2018-12-03T03:10:18.623Z,31.04
2018-12-03T03:10:56.592Z,31.05
2018-12-03T03:11:34.303Z,31.04
2018-12-03T03:12:12.131Z,31.02
2018-12-03T03:12:50.020Z,31.00
2018-12-03T03:13:27.748Z,30.99
2018-12-03T03:14:05.553Z,30.97
2018-12-03T03:14:43.359Z,30.91
2018-12-03T03:15:21.377Z,30.92
2018-12-03T03:15:59.259Z,30.89
2018-12-03T03:16:37.051Z,30.85
2018-12-03T03:17:14.767Z,30.84
2018-12-03T03:17:52.589Z,30.84
2018-12-03T03:18:30.468Z,30.84
2018-12-03T03:19:08.409Z,30.84
2018-12-03T03:19:46.306Z,30.86
2018-12-03T03:20:24.250Z,30.88
2018-12-03T03:21:02.040Z,30.89
2018-12-03T03:21:39.906Z,30.91
2018-12-03T03:22:17.823Z,30.91
2018-12-03T03:22:55.593Z,30.92
2018-12-03T03:23:33.492Z,30.93
2018-12-03T03:24:11.494Z,30.90
2018-12-03T03:24:49.389Z,30.91
2018-12-03T03:25:27.155Z,30.87
2018-12-03T03:26:05.103Z,30.88
2018-12-03T03:26:43.056Z,30.87
2018-12-03T03:27:20.736Z,30.88
2018-12-03T03:27:58.591Z,30.88
2018-12-03T03:28:36.244Z,30.89
2018-12-03T03:29:14.093Z,30.86
2018-12-03T03:29:51.980Z,30.86
2018-12-03T03:30:29.810Z,30.84
2018-12-03T03:31:07.817Z,30.84
2018-12-03T03:31:45.571Z,30.77
2018-12-03T03:32:23.357Z,30.75
2018-12-03T03:33:01.227Z,30.76
2018-12-03T03:33:39.168Z,30.74
2018-12-03T03:34:17.011Z,30.73
2018-12-03T03:34:54.721Z,30.73
2018-12-03T03:35:32.651Z,30.71
2018-12-03T03:36:10.571Z,30.72
2018-12-03T03:36:48.380Z,30.71
2018-12-03T03:37:26.096Z,30.73
2018-12-03T03:38:04.036Z,30.71
2018-12-03T03:38:41.893Z,30.71
2018-12-03T03:39:19.642Z,30.72
2018-12-03T03:39:57.300Z,30.72
2018-12-03T03:40:34.909Z,30.71
2018-12-03T03:41:12.705Z,30.72
2018-12-03T03:41:50.802Z,30.73
2018-12-03T03:42:28.731Z,30.72
2018-12-03T03:43:06.537Z,30.72
2018-12-03T03:43:44.241Z,30.72
2018-12-03T03:44:22.123Z,30.73
2018-12-03T03:44:59.965Z,30.73
2018-12-03T03:45:37.838Z,30.73
2018-12-03T03:46:15.745Z,30.75
2018-12-03T03:46:53.409Z,30.75
2018-12-03T03:47:31.174Z,30.76
2018-12-03T03:48:08.913Z,30.80
2018-12-03T03:48:46.742Z,30.82
2018-12-03T03:49:24.566Z,30.80
2018-12-03T03:50:02.384Z,30.82
2018-12-03T03:50:40.137Z,30.84
2018-12-03T03:51:17.837Z,30.86
2018-12-03T03:51:55.662Z,30.87
2018-12-03T03:52:33.396Z,30.88
2018-12-03T03:53:11.032Z,30.90
2018-12-03T03:53:48.855Z,30.93
2018-12-03T03:54:26.750Z,30.90
2018-12-03T03:55:04.585Z,30.93
2018-12-03T03:55:42.324Z,30.95
2018-12-03T03:56:20.209Z,30.93
2018-12-03T03:56:57.971Z,30.93
2018-12-03T03:57:35.826Z,30.93
2018-12-03T03:58:13.562Z,30.96
2018-12-03T03:58:51.478Z,30.97
2018-12-03T03:59:29.251Z,31.00
2018-12-03T04:00:08.095Z,31.01
2018-12-03T04:00:45.782Z,31.02
2018-12-03T04:01:23.465Z,31.04
2018-12-03T04:02:01.092Z,31.03
2018-12-03T04:02:38.936Z,31.05
2018-12-03T04:03:16.825Z,31.07
2018-12-03T04:05:17.037Z,31.15
2018-12-03T04:05:54.928Z,31.11
2018-12-03T04:06:33.681Z,31.11
2018-12-03T04:07:11.446Z,31.11
2018-12-03T04:07:49.649Z,31.13
2018-12-03T04:08:27.398Z,31.13
2018-12-03T04:09:06.241Z,31.15
2018-12-03T04:09:43.954Z,31.15
2018-12-03T04:10:21.722Z,31.16
2018-12-03T04:10:59.367Z,31.15
2018-12-03T04:11:37.296Z,31.13
2018-12-03T04:12:15.160Z,31.15
2018-12-03T04:12:53.052Z,31.14
2018-12-03T04:13:30.901Z,31.15
2018-12-03T04:14:08.615Z,31.14
2018-12-03T04:14:46.437Z,31.14
2018-12-03T04:15:24.268Z,31.14
2018-12-03T04:16:02.033Z,31.16
2018-12-03T04:16:39.986Z,31.16
2018-12-03T04:17:17.835Z,31.15
2018-12-03T04:17:55.463Z,31.15
2018-12-03T04:18:33.156Z,31.17
2018-12-03T04:19:10.888Z,31.16
2018-12-03T04:19:48.620Z,31.19
2018-12-03T04:20:26.423Z,31.19
2018-12-03T04:21:04.276Z,31.20
2018-12-03T04:21:41.963Z,31.21
2018-12-03T04:22:19.763Z,31.21
2018-12-03T04:22:58.211Z,31.22
2018-12-03T04:23:36.145Z,31.23
2018-12-03T04:24:13.891Z,31.23
2018-12-03T04:24:51.769Z,31.24
2018-12-03T04:25:29.702Z,31.24
2018-12-03T04:26:07.361Z,31.25
2018-12-03T04:26:45.088Z,31.26
2018-12-03T04:27:22.881Z,31.26
2018-12-03T04:28:00.744Z,31.28
2018-12-03T04:28:38.534Z,31.28
2018-12-03T04:29:16.496Z,31.30
2018-12-03T04:29:54.275Z,31.30
2018-12-03T04:30:32.127Z,31.30
2018-12-03T04:31:09.935Z,31.28
2018-12-03T04:31:47.739Z,31.29
2018-12-03T04:32:25.652Z,31.27
2018-12-03T04:33:03.527Z,31.28
2018-12-03T04:33:41.224Z,31.26
2018-12-03T04:34:19.047Z,31.27
2018-12-03T04:34:57.066Z,31.28
2018-12-03T04:35:34.947Z,31.27
2018-12-03T04:36:12.723Z,31.27
2018-12-03T04:36:50.638Z,31.29
2018-12-03T04:37:28.462Z,31.29
2018-12-03T04:38:06.198Z,31.29
2018-12-03T04:38:43.975Z,31.30
2018-12-03T04:39:21.692Z,31.30
2018-12-03T04:39:59.672Z,31.30
2018-12-03T04:40:37.532Z,31.32
2018-12-03T04:41:15.246Z,31.33
2018-12-03T04:41:53.070Z,31.35
2018-12-03T04:42:30.922Z,31.38
2018-12-03T04:43:08.599Z,31.41
2018-12-03T04:43:46.371Z,31.44
2018-12-03T04:44:24.479Z,31.48
2018-12-03T04:45:02.202Z,31.51
2018-12-03T04:45:39.934Z,31.56
2018-12-03T04:46:17.699Z,31.63
2018-12-03T04:46:55.435Z,31.70
2018-12-03T04:47:33.165Z,31.78
2018-12-03T04:48:11.058Z,31.83
2018-12-03T04:48:48.979Z,31.89
2018-12-03T04:49:26.946Z,31.95
2018-12-03T04:50:04.847Z,32.03
2018-12-03T04:50:42.646Z,32.09
2018-12-03T04:51:20.540Z,32.16
2018-12-03T04:51:58.431Z,32.22
2018-12-03T04:52:36.221Z,32.27
2018-12-03T04:53:13.909Z,32.32
2018-12-03T04:53:51.885Z,32.35
2018-12-03T04:54:29.564Z,32.40
2018-12-03T04:55:07.388Z,32.46
2018-12-03T04:55:45.115Z,32.54
2018-12-03T04:56:22.778Z,32.67
2018-12-03T04:57:00.472Z,32.77
2018-12-03T04:57:38.311Z,32.83
2018-12-03T04:58:16.250Z,32.89
2018-12-03T04:58:54.099Z,32.94
2018-12-03T04:59:31.926Z,32.96
2018-12-03T05:00:21.269Z,32.94
2018-12-03T05:00:59.050Z,32.92
2018-12-03T05:01:36.875Z,32.89
2018-12-03T05:02:14.624Z,32.85
2018-12-03T05:02:56.270Z,32.85
2018-12-03T05:03:34.155Z,32.80
2018-12-03T05:04:11.863Z,32.79
2018-12-03T05:04:49.633Z,32.77
2018-12-03T05:05:27.263Z,32.75
2018-12-03T05:06:05.024Z,32.75
2018-12-03T05:06:42.943Z,32.73
2018-12-03T05:07:20.614Z,32.74
2018-12-03T05:07:58.353Z,32.75
2018-12-03T05:08:36.245Z,32.75
2018-12-03T05:09:14.052Z,32.75
2018-12-03T05:09:51.793Z,32.78
2018-12-03T05:10:29.901Z,32.79
2018-12-03T05:11:08.124Z,32.80
2018-12-03T05:11:45.953Z,32.83
2018-12-03T05:12:23.880Z,32.87
2018-12-03T05:13:01.654Z,32.90
2018-12-03T05:13:39.514Z,32.94
2018-12-03T05:14:17.296Z,32.95
2018-12-03T05:14:55.228Z,32.99
2018-12-03T05:15:32.880Z,33.02
2018-12-03T05:16:10.721Z,33.05
2018-12-03T05:16:48.646Z,33.10
2018-12-03T05:17:26.418Z,33.17
2018-12-03T05:18:04.210Z,33.27
2018-12-03T05:18:41.918Z,33.34
2018-12-03T05:19:19.757Z,33.41
2018-12-03T05:19:57.541Z,33.48
2018-12-03T05:20:35.321Z,33.52
2018-12-03T05:21:13.141Z,33.55
2018-12-03T05:21:51.020Z,33.58
2018-12-03T05:22:28.956Z,33.61
2018-12-03T05:23:06.746Z,33.63
2018-12-03T05:23:44.681Z,33.61
2018-12-03T05:24:22.655Z,33.59
2018-12-03T05:25:00.379Z,33.58
2018-12-03T05:25:38.138Z,33.56
2018-12-03T05:26:15.878Z,33.53
2018-12-03T05:26:53.722Z,33.53
2018-12-03T05:27:31.570Z,33.47
2018-12-03T05:28:09.276Z,33.45
2018-12-03T05:28:47.044Z,33.40
2018-12-03T05:29:24.881Z,33.36
2018-12-03T05:30:02.664Z,33.33
2018-12-03T05:30:40.544Z,33.31
2018-12-03T05:31:18.335Z,33.28
2018-12-03T05:31:56.640Z,33.25
2018-12-03T05:32:34.412Z,33.23
2018-12-03T05:33:12.153Z,33.23
2018-12-03T05:33:49.828Z,33.22
2018-12-03T05:34:27.532Z,33.18
2018-12-03T05:35:05.431Z,33.18
2018-12-03T05:35:43.156Z,33.17
2018-12-03T05:36:20.911Z,33.17
2018-12-03T05:36:58.815Z,33.17
2018-12-03T05:37:36.589Z,33.15
2018-12-03T05:38:14.302Z,33.13
2018-12-03T05:38:52.104Z,33.11
2018-12-03T05:39:29.816Z,33.09
2018-12-03T05:40:09.940Z,33.09
2018-12-03T05:40:47.781Z,33.08
2018-12-03T05:41:25.568Z,33.05
2018-12-03T05:42:03.367Z,33.02
2018-12-03T05:42:41.086Z,33.01
2018-12-03T05:43:19.938Z,33.00
2018-12-03T05:43:57.611Z,33.00
2018-12-03T05:44:35.516Z,32.99
2018-12-03T05:45:13.777Z,32.99
2018-12-03T05:45:51.471Z,32.99
2018-12-03T05:46:29.190Z,32.99
2018-12-03T05:47:06.806Z,33.00
2018-12-03T05:47:44.633Z,32.96
2018-12-03T05:48:22.507Z,32.97
2018-12-03T05:49:00.314Z,32.98
2018-12-03T05:49:38.247Z,32.99
2018-12-03T05:50:21.515Z,32.99
2018-12-03T05:50:59.168Z,33.00
2018-12-03T05:51:36.847Z,33.01
2018-12-03T05:52:14.622Z,33.03
2018-12-03T05:52:52.857Z,33.06
2018-12-03T05:53:30.530Z,33.05
2018-12-03T05:54:08.330Z,33.04
2018-12-03T05:54:47.438Z,33.02
2018-12-03T05:55:25.241Z,33.02
2018-12-03T05:56:02.985Z,33.02
2018-12-03T05:56:40.867Z,33.01
2018-12-03T05:57:18.507Z,33.01
2018-12-03T05:57:56.382Z,32.99
2018-12-03T05:58:34.140Z,32.97
2018-12-03T05:59:12.124Z,32.95
2018-12-03T05:59:49.801Z,32.89
2018-12-03T06:00:27.652Z,32.83
2018-12-03T06:01:05.475Z,32.76
2018-12-03T06:01:43.283Z,32.70
2018-12-03T06:02:21.198Z,32.67
2018-12-03T06:02:59.031Z,32.63
2018-12-03T06:03:36.736Z,32.61
2018-12-03T06:04:14.581Z,32.57
2018-12-03T06:04:52.330Z,32.53
2018-12-03T06:05:30.123Z,32.51
2018-12-03T06:06:08.051Z,32.45
2018-12-03T06:06:49.969Z,32.41
2018-12-03T06:07:28.915Z,32.26
2018-12-03T06:08:06.693Z,32.25
2018-12-03T06:08:44.386Z,32.24
2018-12-03T06:09:22.185Z,32.22
2018-12-03T06:09:59.864Z,32.21
2018-12-03T06:10:37.762Z,32.21
2018-12-03T06:11:15.442Z,32.20
2018-12-03T06:11:53.247Z,32.20
2018-12-03T06:12:31.046Z,32.19
2018-12-03T06:13:08.734Z,32.20
2018-12-03T06:13:46.424Z,32.22
2018-12-03T06:14:24.189Z,32.21
2018-12-03T06:15:01.976Z,32.20
2018-12-03T06:15:42.673Z,32.21
2018-12-03T06:16:20.482Z,32.20
2018-12-03T06:16:58.396Z,32.20
2018-12-03T06:17:36.265Z,32.22
2018-12-03T06:18:15.000Z,32.22
2018-12-03T06:18:52.800Z,32.23
2018-12-03T06:19:30.677Z,32.23
2018-12-03T06:20:10.141Z,32.25
2018-12-03T06:20:48.057Z,32.25
2018-12-03T06:21:25.894Z,32.26
2018-12-03T06:22:03.871Z,32.27
2018-12-03T06:22:41.694Z,32.29
2018-12-03T06:23:19.394Z,32.30
2018-12-03T06:23:57.149Z,32.32
2018-12-03T06:24:37.102Z,32.33
2018-12-03T06:25:33.142Z,32.29
2018-12-03T06:26:10.875Z,32.32
2018-12-03T06:26:48.553Z,32.31
2018-12-03T06:27:26.352Z,32.34
2018-12-03T06:28:04.225Z,32.34
2018-12-03T06:28:42.016Z,32.35
2018-12-03T06:29:19.903Z,32.36
2018-12-03T06:29:57.640Z,32.37
2018-12-03T06:30:35.427Z,32.37
2018-12-03T06:31:13.167Z,32.38
2018-12-03T06:31:50.903Z,32.39
2018-12-03T06:32:28.647Z,32.41
2018-12-03T06:33:06.477Z,32.41
2018-12-03T06:33:44.049Z,32.43
2018-12-03T06:34:21.691Z,32.43
2018-12-03T06:34:59.690Z,32.45
2018-12-03T06:35:39.024Z,32.45
2018-12-03T06:36:16.701Z,32.47
2018-12-03T06:36:54.467Z,32.52
2018-12-03T06:37:32.253Z,32.52
2018-12-03T06:38:15.187Z,32.52
2018-12-03T06:38:49.622Z,32.57
2018-12-03T06:39:27.679Z,32.57
2018-12-03T06:40:05.925Z,32.59
2018-12-03T06:40:43.803Z,32.61
2018-12-03T06:41:21.651Z,32.63
2018-12-03T06:41:59.386Z,32.66
2018-12-03T06:42:37.105Z,32.66
2018-12-03T06:43:14.922Z,32.69
2018-12-03T06:43:52.681Z,32.70
2018-12-03T06:44:30.456Z,32.73
2018-12-03T06:45:08.677Z,32.75
2018-12-03T06:45:46.552Z,32.79
2018-12-03T06:46:24.413Z,32.81
2018-12-03T06:47:02.185Z,32.85
2018-12-03T06:47:40.092Z,32.88
2018-12-03T06:48:25.533Z,32.91
2018-12-03T06:49:03.419Z,32.93
2018-12-03T06:49:41.271Z,32.96
2018-12-03T06:50:18.942Z,33.00
2018-12-03T06:50:56.812Z,33.03
2018-12-03T06:51:34.581Z,33.06
2018-12-03T06:52:12.442Z,33.10
2018-12-03T06:52:50.226Z,33.13
2018-12-03T06:53:27.988Z,33.16
2018-12-03T06:54:05.825Z,33.20
2018-12-03T06:54:43.666Z,33.23
2018-12-03T06:55:21.432Z,33.25
2018-12-03T06:55:59.328Z,33.26
2018-12-03T06:56:37.266Z,33.29
2018-12-03T06:57:14.981Z,33.30
2018-12-03T06:57:52.983Z,33.32
2018-12-03T06:58:31.148Z,33.32
2018-12-03T06:59:08.921Z,33.34
2018-12-03T06:59:46.716Z,33.33
2018-12-03T07:00:25.742Z,33.35
2018-12-03T07:01:03.479Z,33.35
2018-12-03T07:01:43.560Z,33.35
2018-12-03T07:02:22.056Z,33.34
2018-12-03T07:02:59.743Z,33.37
2018-12-03T07:03:37.627Z,33.35
2018-12-03T07:04:15.344Z,33.36
2018-12-03T07:04:53.105Z,33.35
2018-12-03T07:05:30.821Z,33.37
2018-12-03T07:06:08.702Z,33.36
2018-12-03T07:06:47.211Z,33.35
2018-12-03T07:07:24.928Z,33.35
2018-12-03T07:08:03.513Z,33.37
2018-12-03T07:08:41.354Z,33.36
2018-12-03T07:09:19.056Z,33.37
2018-12-03T07:09:56.846Z,33.36
2018-12-03T07:10:34.623Z,33.38
2018-12-03T07:11:12.406Z,33.39
2018-12-03T07:11:50.129Z,33.38
2018-12-03T07:12:28.046Z,33.36
2018-12-03T07:13:08.649Z,33.39
2018-12-03T07:13:46.479Z,33.40
2018-12-03T07:14:24.192Z,33.42
2018-12-03T07:15:01.872Z,33.44
2018-12-03T07:15:41.483Z,33.47
2018-12-03T07:16:19.189Z,33.44
2018-12-03T07:16:57.026Z,33.42
2018-12-03T07:17:34.780Z,33.44
2018-12-03T07:18:13.382Z,33.42
2018-12-03T07:18:51.405Z,33.41
2018-12-03T07:19:29.309Z,33.42
2018-12-03T07:20:08.508Z,33.41
2018-12-03T07:20:46.295Z,33.40
2018-12-03T07:21:24.056Z,33.39
2018-12-03T07:22:01.946Z,33.38
2018-12-03T07:22:39.716Z,33.39
2018-12-03T07:23:17.388Z,33.36
2018-12-03T07:23:55.539Z,33.34
2018-12-03T07:24:33.427Z,33.33
2018-12-03T07:25:12.553Z,33.31
2018-12-03T07:25:50.322Z,33.29
2018-12-03T07:26:28.189Z,33.27
2018-12-03T07:27:05.860Z,33.28
2018-12-03T07:27:43.632Z,33.27
2018-12-03T07:28:21.429Z,33.26
2018-12-03T07:29:02.103Z,33.24
2018-12-03T07:29:39.930Z,33.24
2018-12-03T07:30:19.509Z,33.24
2018-12-03T07:30:57.153Z,33.20
2018-12-03T07:31:34.912Z,33.16
2018-12-03T07:32:12.643Z,33.16
2018-12-03T07:32:51.561Z,33.15
2018-12-03T07:33:29.429Z,33.14
2018-12-03T07:34:07.250Z,33.13
2018-12-03T07:34:45.161Z,33.12
2018-12-03T07:35:23.522Z,33.11
2018-12-03T07:36:01.224Z,33.10
2018-12-03T07:36:39.102Z,33.09
2018-12-03T07:37:16.772Z,33.09
2018-12-03T07:37:55.635Z,33.08
2018-12-03T07:38:33.741Z,33.07
2018-12-03T07:39:12.064Z,33.06
2018-12-03T07:39:49.723Z,33.05
2018-12-03T07:40:27.633Z,33.03
2018-12-03T07:41:05.345Z,33.03
2018-12-03T07:41:43.137Z,33.03
2018-12-03T07:42:21.010Z,33.02
2018-12-03T07:42:58.711Z,33.02
2018-12-03T07:43:36.551Z,33.01
2018-12-03T07:44:14.368Z,33.01
2018-12-03T07:44:52.185Z,33.01
2018-12-03T07:45:29.850Z,33.03
2018-12-03T07:46:07.684Z,33.03
2018-12-03T07:46:45.439Z,33.03
2018-12-03T07:47:23.212Z,33.01
2018-12-03T07:48:01.100Z,33.03
2018-12-03T07:48:38.927Z,33.04
2018-12-03T07:49:16.854Z,33.04
2018-12-03T07:49:54.744Z,33.04
2018-12-03T07:50:32.639Z,33.06
2018-12-03T07:51:10.514Z,33.08
2018-12-03T07:51:48.259Z,33.10
2018-12-03T07:52:25.955Z,33.12
2018-12-03T07:53:03.777Z,33.14
2018-12-03T07:53:41.626Z,33.16
2018-12-03T07:54:19.409Z,33.17
2018-12-03T07:54:57.274Z,33.19
2018-12-03T07:55:35.134Z,33.20
2018-12-03T07:56:13.014Z,33.17
2018-12-03T07:56:50.813Z,33.13
2018-12-03T07:57:30.109Z,33.05
2018-12-03T07:58:18.556Z,33.06
2018-12-03T07:58:56.334Z,33.05
2018-12-03T07:59:34.222Z,33.03
2018-12-03T08:00:14.870Z,33.01
2018-12-03T08:00:54.267Z,33.00
2018-12-03T08:01:31.990Z,32.99
2018-12-03T08:02:09.693Z,32.98
2018-12-03T08:02:48.736Z,32.94
2018-12-03T08:03:28.215Z,32.94
2018-12-03T08:04:06.066Z,32.94
2018-12-03T08:04:46.674Z,32.94
2018-12-03T08:05:24.583Z,32.94
2018-12-03T08:06:02.462Z,32.95
2018-12-03T08:06:41.347Z,32.95
2018-12-03T08:07:19.094Z,32.97
2018-12-03T08:07:56.826Z,32.98
2018-12-03T08:08:34.655Z,32.98
2018-12-03T08:09:13.322Z,32.99
2018-12-03T08:09:51.192Z,32.99
2018-12-03T08:10:29.202Z,33.01
2018-12-03T08:11:06.876Z,33.01
2018-12-03T08:11:44.800Z,33.03
2018-12-03T08:12:22.694Z,33.04